Time;durP1;ratioP1;P1;durP2;ratioP2;P2;SDS_P1;SDS_P2;PMS_P1;PMS_P2;Temp;Humidity;BMP_temperature;BMP_pressure;BME280_temperature;BME280_humidity;BME280_pressure;Samples;Min_cycle;Max_cycle;Signal;HPM_P1;HPM_P2
2023/01/18 00:00:13;;;;;;;5.70;2.47;;;;;;;;;;6307029;22;20090;-62
2023/01/18 00:02:40;;;;;;;9.63;3.50;;;;;;;;;;6279811;22;20025;-62
2023/01/18 00:05:08;;;;;;;6.00;2.70;;;;;;;;;;6306864;22;20464;-62
2023/01/18 00:07:35;;;;;;;4.75;2.45;;;;;;;;;;6307011;22;20203;-62
2023/01/18 00:10:03;;;;;;;6.78;2.55;;;;;;;;;;6306852;22;20015;-62
2023/01/18 00:12:32;;;;;;;5.95;2.20;;;;;;;;;;6279970;22;20011;-63
2023/01/18 00:15:00;;;;;;;3.92;2.15;;;;;;;;;;6307123;22;20082;-63
2023/01/18 00:17:27;;;;;;;5.35;2.35;;;;;;;;;;6307065;22;20061;-63
2023/01/18 00:19:54;;;;;;;4.68;2.45;;;;;;;;;;6307183;22;20393;-63
2023/01/18 00:22:22;;;;;;;8.10;2.92;;;;;;;;;;6280003;22;20069;-62
2023/01/18 00:24:49;;;;;;;6.25;2.60;;;;;;;;;;6306798;22;20012;-62
2023/01/18 00:27:17;;;;;;;5.82;3.35;;;;;;;;;;6307006;22;20027;-62
2023/01/18 00:29:44;;;;;;;5.60;2.22;;;;;;;;;;6279379;22;20513;-62
2023/01/18 00:32:13;;;;;;;4.75;2.08;;;;;;;;;;6307039;22;20030;-62
2023/01/18 00:34:40;;;;;;;4.32;2.08;;;;;;;;;;6306867;22;20398;-62
2023/01/18 00:37:08;;;;;;;4.47;1.83;;;;;;;;;;6279996;22;20015;-62
2023/01/18 00:39:35;;;;;;;3.60;2.08;;;;;;;;;;6279384;22;20035;-62
2023/01/18 00:44:49;;;;;;;6.80;2.20;;;;;;;;;;6306977;22;20076;-62
2023/01/18 00:47:16;;;;;;;4.70;2.50;;;;;;;;;;6306540;22;20019;-62
2023/01/18 00:49:45;;;;;;;6.63;2.40;;;;;;;;;;6306529;22;20019;-63
2023/01/18 00:52:12;;;;;;;5.68;1.92;;;;;;;;;;6279233;22;20382;-63
2023/01/18 00:54:39;;;;;;;3.45;2.00;;;;;;;;;;6306571;22;20015;-62
2023/01/18 00:57:07;;;;;;;4.00;2.22;;;;;;;;;;6306974;22;20011;-63
2023/01/18 00:59:34;;;;;;;4.93;2.25;;;;;;;;;;6281942;22;20026;-63
2023/01/18 01:02:02;;;;;;;5.95;2.40;;;;;;;;;;6308481;22;20015;-63
2023/01/18 01:07:16;;;;;;;5.85;2.15;;;;;;;;;;6308655;22;20065;-62
2023/01/18 01:09:45;;;;;;;6.25;2.22;;;;;;;;;;6308479;22;20015;-62
2023/01/18 01:26:06;;;;;;;7.32;2.42;;;;;;;;;;6308074;22;20011;-62
2023/01/18 01:28:34;;;;;;;4.93;2.15;;;;;;;;;;6308556;22;20015;-62
2023/01/18 01:31:04;;;;;;;6.18;2.15;;;;;;;;;;6308533;22;20015;-62
2023/01/18 01:33:33;;;;;;;9.45;2.97;;;;;;;;;;6308562;22;20121;-62
2023/01/18 01:36:01;;;;;;;5.82;2.10;;;;;;;;;;6281355;22;20023;-62
2023/01/18 01:38:30;;;;;;;5.60;2.15;;;;;;;;;;6308485;22;20452;-62
2023/01/18 01:41:01;;;;;;;6.65;2.55;;;;;;;;;;6308348;22;20027;-62
2023/01/18 01:43:48;;;;;;;5.00;1.70;;;;;;;;;;6308607;22;20015;-62
2023/01/18 01:46:31;;;;;;;8.13;2.55;;;;;;;;;;6308477;22;20387;-62
2023/01/18 01:49:01;;;;;;;6.65;2.53;;;;;;;;;;6308285;22;20038;-62
2023/01/18 01:51:29;;;;;;;8.10;2.20;;;;;;;;;;6308387;22;20057;-62
2023/01/18 01:53:59;;;;;;;6.50;2.40;;;;;;;;;;6308148;22;20045;-62
2023/01/18 01:56:28;;;;;;;6.82;2.70;;;;;;;;;;6281651;22;20017;-62
2023/01/18 01:58:58;;;;;;;8.63;2.50;;;;;;;;;;6308296;22;20441;-62
2023/01/18 02:01:27;;;;;;;6.00;3.00;;;;;;;;;;6308241;22;20019;-62
2023/01/18 02:03:56;;;;;;;6.00;3.17;;;;;;;;;;6308235;22;20018;-62
2023/01/18 02:06:30;;;;;;;8.18;2.80;;;;;;;;;;6308196;22;20068;-62
2023/01/18 02:08:59;;;;;;;12.60;3.40;;;;;;;;;;6307807;22;20043;-62
2023/01/18 02:11:28;;;;;;;11.35;2.80;;;;;;;;;;6308359;22;20015;-62
2023/01/18 02:13:56;;;;;;;5.47;2.47;;;;;;;;;;6308139;22;20037;-62
2023/01/18 02:16:30;;;;;;;7.18;2.75;;;;;;;;;;6308001;22;20019;-62
2023/01/18 02:19:15;;;;;;;9.00;2.63;;;;;;;;;;6308077;22;20340;-62
2023/01/18 02:21:55;;;;;;;10.77;3.33;;;;;;;;;;6307984;22;20039;-62
2023/01/18 02:24:38;;;;;;;6.85;2.60;;;;;;;;;;6307883;22;20095;-64
2023/01/18 02:27:21;;;;;;;7.65;2.83;;;;;;;;;;6307817;22;20444;-62
2023/01/18 02:29:48;;;;;;;12.60;2.65;;;;;;;;;;6307694;22;20015;-62
2023/01/18 02:32:34;;;;;;;6.55;2.65;;;;;;;;;;6307953;22;20019;-62
2023/01/18 02:35:14;;;;;;;6.93;2.63;;;;;;;;;;6307977;22;20011;-61
2023/01/18 02:37:51;;;;;;;8.70;2.65;;;;;;;;;;6307909;22;20086;-61
2023/01/18 02:40:33;;;;;;;11.50;2.63;;;;;;;;;;6307848;22;20015;-61
2023/01/18 02:48:37;;;;;;;7.40;2.85;;;;;;;;;;6307599;22;20015;-62
2023/01/18 02:51:05;;;;;;;11.68;3.33;;;;;;;;;;6307972;22;20026;-62
2023/01/18 02:53:35;;;;;;;7.15;2.90;;;;;;;;;;6307513;22;20012;-62
2023/01/18 02:56:05;;;;;;;10.10;3.30;;;;;;;;;;6307653;22;20086;-62
2023/01/18 02:58:50;;;;;;;12.38;3.88;;;;;;;;;;6307452;22;20019;-62
2023/01/18 03:01:18;;;;;;;;;;;;;;;;;;6307829;22;20504;-62
2023/01/18 03:03:47;;;;;;;9.70;3.08;;;;;;;;;;6307856;22;19921;-62
2023/01/18 03:06:15;;;;;;;7.13;2.92;;;;;;;;;;6307764;22;20340;-62
2023/01/18 03:08:49;;;;;;;9.98;3.20;;;;;;;;;;6307503;22;20007;-62
2023/01/18 03:11:28;;;;;;;12.50;3.40;;;;;;;;;;6307840;22;20360;-62
2023/01/18 03:13:55;;;;;;;8.20;3.30;;;;;;;;;;6307447;22;20015;-62
2023/01/18 03:16:38;;;;;;;9.23;3.30;;;;;;;;;;6307429;22;20018;-62
2023/01/18 03:21:58;;;;;;;8.68;3.00;;;;;;;;;;6307272;22;20019;-62
2023/01/18 03:24:27;;;;;;;10.60;2.80;;;;;;;;;;6307383;22;20019;-62
2023/01/18 03:26:56;;;;;;;9.27;2.70;;;;;;;;;;6279620;22;20023;-62
2023/01/18 03:35:06;;;;;;;10.27;2.40;;;;;;;;;;6307274;22;20022;-62
2023/01/18 03:37:39;;;;;;;12.32;2.92;;;;;;;;;;6307259;22;20019;-63
2023/01/18 03:40:07;;;;;;;10.38;2.58;;;;;;;;;;6307522;22;20035;-63
2023/01/18 03:42:55;;;;;;;9.35;3.05;;;;;;;;;;6311114;22;20345;-63
2023/01/18 03:45:26;;;;;;;7.97;2.80;;;;;;;;;;6307550;22;20382;-63
2023/01/18 03:47:54;;;;;;;13.23;3.45;;;;;;;;;;6307156;22;20016;-63
2023/01/18 03:50:24;;;;;;;42.15;12.65;;;;;;;;;;6306851;22;20016;-63
2023/01/18 03:52:55;;;;;;;33.58;12.38;;;;;;;;;;6307179;22;20011;-63
2023/01/18 03:55:25;;;;;;;32.85;11.05;;;;;;;;;;6306924;22;20015;-63
2023/01/18 03:58:05;;;;;;;27.60;8.50;;;;;;;;;;6306950;22;20049;-63
2023/01/18 04:00:33;;;;;;;20.60;6.57;;;;;;;;;;6306946;22;20026;-63
2023/01/18 04:03:00;;;;;;;15.50;4.97;;;;;;;;;;6306801;22;20030;-62
2023/01/18 04:05:28;;;;;;;11.98;3.80;;;;;;;;;;6306901;22;20027;-62
2023/01/18 04:07:56;;;;;;;14.02;4.05;;;;;;;;;;6306664;22;20015;-62
2023/01/18 04:10:24;;;;;;;16.90;4.30;;;;;;;;;;6306984;22;20019;-61
2023/01/18 04:12:51;;;;;;;9.43;3.92;;;;;;;;;;6306790;22;20065;-61
2023/01/18 04:15:19;;;;;;;12.20;3.47;;;;;;;;;;6306865;22;20031;-62
2023/01/18 04:17:51;;;;;;;9.73;3.30;;;;;;;;;;6306715;22;20015;-61
2023/01/18 04:20:19;;;;;;;11.20;3.70;;;;;;;;;;6306948;22;20094;-61
2023/01/18 04:22:54;;;;;;;13.45;4.15;;;;;;;;;;6307076;22;20011;-62
2023/01/18 04:25:22;;;;;;;9.38;3.47;;;;;;;;;;6306690;22;20021;-61
2023/01/18 04:27:49;;;;;;;10.27;3.45;;;;;;;;;;6306780;22;20015;-61
2023/01/18 04:30:17;;;;;;;12.90;4.30;;;;;;;;;;6279456;22;20472;-62
2023/01/18 04:32:45;;;;;;;12.55;3.42;;;;;;;;;;6308940;22;20015;-62
2023/01/18 04:35:13;;;;;;;12.75;3.45;;;;;;;;;;6308945;22;20017;-61
2023/01/18 04:37:40;;;;;;;10.43;3.50;;;;;;;;;;6308816;22;20018;-62
2023/01/18 04:40:09;;;;;;;11.57;3.60;;;;;;;;;;6309119;22;20352;-61
2023/01/18 04:42:36;;;;;;;11.48;3.13;;;;;;;;;;6308580;22;20029;-62
2023/01/18 04:45:04;;;;;;;12.38;2.83;;;;;;;;;;6308671;22;20015;-61
2023/01/18 04:47:31;;;;;;;11.07;3.47;;;;;;;;;;6308882;22;20022;-61
2023/01/18 04:49:59;;;;;;;9.32;3.80;;;;;;;;;;6308680;22;20365;-61
2023/01/18 04:52:30;;;;;;;10.77;3.28;;;;;;;;;;6280927;22;20019;-62
2023/01/18 04:54:58;;;;;;;8.95;2.85;;;;;;;;;;6308529;22;20325;-62
2023/01/18 04:57:26;;;;;;;13.23;3.60;;;;;;;;;;6308369;22;20042;-62
2023/01/18 04:59:53;;;;;;;12.75;3.42;;;;;;;;;;6308471;22;20345;-62
2023/01/18 05:02:21;;;;;;;12.93;3.00;;;;;;;;;;6308817;22;20015;-62
2023/01/18 05:04:48;;;;;;;10.50;4.00;;;;;;;;;;6308619;22;20053;-62
2023/01/18 05:07:16;;;;;;;11.93;3.50;;;;;;;;;;6308478;22;20090;-62
2023/01/18 05:09:43;;;;;;;12.57;3.40;;;;;;;;;;6308188;22;20043;-62
2023/01/18 05:12:11;;;;;;;14.43;3.33;;;;;;;;;;6308324;22;20045;-62
2023/01/18 05:14:38;;;;;;;17.73;7.22;;;;;;;;;;6308462;22;20496;-62
2023/01/18 05:17:06;;;;;;;19.85;8.15;;;;;;;;;;6308590;22;20026;-62
2023/01/18 05:19:33;;;;;;;11.18;3.70;;;;;;;;;;6308220;22;20314;-61
2023/01/18 05:22:01;;;;;;;12.85;3.28;;;;;;;;;;6308473;22;20015;-62
2023/01/18 05:24:29;;;;;;;8.57;3.30;;;;;;;;;;6308537;22;20019;-61
2023/01/18 05:26:56;;;;;;;10.93;3.20;;;;;;;;;;6307833;22;20012;-61
2023/01/18 05:29:26;;;;;;;13.18;3.67;;;;;;;;;;6308326;22;20318;-62
2023/01/18 05:31:54;;;;;;;11.77;3.30;;;;;;;;;;6308254;22;20015;-61
2023/01/18 05:34:21;;;;;;;8.32;2.83;;;;;;;;;;6308159;22;20011;-61
2023/01/18 05:36:49;;;;;;;13.60;3.28;;;;;;;;;;6307875;22;20480;-61
2023/01/18 05:39:17;;;;;;;13.43;3.35;;;;;;;;;;6307998;22;20069;-61
2023/01/18 05:41:44;;;;;;;12.73;4.10;;;;;;;;;;6307326;22;20457;-61
2023/01/18 05:44:12;;;;;;;10.90;3.97;;;;;;;;;;6305892;22;20027;-61
2023/01/18 05:46:39;;;;;;;15.48;4.10;;;;;;;;;;6306984;22;20016;-61
2023/01/18 05:49:07;;;;;;;14.00;4.60;;;;;;;;;;6307345;22;20016;-61
2023/01/18 05:51:35;;;;;;;15.00;5.30;;;;;;;;;;6307272;22;20068;-60
2023/01/18 05:54:02;;;;;;;17.98;8.43;;;;;;;;;;6308181;22;20472;-61
2023/01/18 05:56:30;;;;;;;14.02;6.65;;;;;;;;;;6308133;22;20061;-62
2023/01/18 05:58:58;;;;;;;17.33;5.90;;;;;;;;;;6281162;22;20084;-62
2023/01/18 06:01:26;;;;;;;15.77;4.40;;;;;;;;;;6308187;22;20449;-62
2023/01/18 06:03:53;;;;;;;12.52;3.63;;;;;;;;;;6307963;22;20026;-61
2023/01/18 06:06:21;;;;;;;10.57;3.53;;;;;;;;;;6307862;22;20517;-61
2023/01/18 06:08:48;;;;;;;10.55;3.13;;;;;;;;;;6307901;22;20019;-61
2023/01/18 06:11:16;;;;;;;10.05;3.28;;;;;;;;;;6307620;22;20380;-61
2023/01/18 06:13:43;;;;;;;11.82;3.80;;;;;;;;;;6308022;22;20391;-60
2023/01/18 06:16:10;;;;;;;10.10;3.40;;;;;;;;;;6307957;22;20019;-61
2023/01/18 06:18:38;;;;;;;10.27;3.60;;;;;;;;;;6307975;22;20016;-61
2023/01/18 06:21:06;;;;;;;12.98;3.92;;;;;;;;;;6308082;22;20019;-62
2023/01/18 06:23:34;;;;;;;14.65;4.18;;;;;;;;;;6307946;22;20086;-62
2023/01/18 06:26:01;;;;;;;12.45;3.30;;;;;;;;;;6307777;22;20023;-62
2023/01/18 06:28:29;;;;;;;12.13;4.05;;;;;;;;;;6280971;22;20015;-62
2023/01/18 06:30:57;;;;;;;19.33;4.20;;;;;;;;;;6307680;22;20341;-62
2023/01/18 06:33:25;;;;;;;12.48;4.05;;;;;;;;;;6307788;22;20103;-62
2023/01/18 06:35:52;;;;;;;12.75;3.90;;;;;;;;;;6308162;22;20019;-62
2023/01/18 06:38:20;;;;;;;13.05;3.63;;;;;;;;;;6307758;22;20072;-62
2023/01/18 06:40:47;;;;;;;14.63;3.80;;;;;;;;;;6308006;22;20021;-62
2023/01/18 06:43:15;;;;;;;16.10;3.97;;;;;;;;;;6307650;22;20011;-62
2023/01/18 06:45:43;;;;;;;13.65;3.47;;;;;;;;;;6307530;22;20023;-62
2023/01/18 06:48:11;;;;;;;9.95;3.63;;;;;;;;;;6307323;22;20015;-62
2023/01/18 06:50:38;;;;;;;8.88;3.05;;;;;;;;;;6307418;22;20015;-62
2023/01/18 06:53:06;;;;;;;9.82;2.65;;;;;;;;;;6307285;22;20524;-61
2023/01/18 06:55:33;;;;;;;12.50;3.20;;;;;;;;;;6306931;22;20050;-61
2023/01/18 06:58:01;;;;;;;11.73;4.05;;;;;;;;;;6280713;22;20016;-61
2023/01/18 07:00:28;;;;;;;12.00;4.40;;;;;;;;;;6307491;22;20068;-61
2023/01/18 07:02:57;;;;;;;11.57;4.10;;;;;;;;;;6307568;22;20506;-61
2023/01/18 07:05:25;;;;;;;13.57;4.45;;;;;;;;;;6307408;22;20445;-61
2023/01/18 07:07:52;;;;;;;11.52;3.42;;;;;;;;;;6307514;22;20083;-61
2023/01/18 07:10:20;;;;;;;10.43;3.03;;;;;;;;;;6306874;22;20069;-61
2023/01/18 07:12:49;;;;;;;10.43;4.03;;;;;;;;;;6280263;22;20026;-61
2023/01/18 07:15:17;;;;;;;11.25;3.58;;;;;;;;;;6307255;22;20011;-61
2023/01/18 07:17:49;;;;;;;11.23;3.55;;;;;;;;;;6307310;22;20071;-61
2023/01/18 07:20:18;;;;;;;12.60;4.50;;;;;;;;;;6280128;22;20015;-61
2023/01/18 07:22:50;;;;;;;13.25;3.72;;;;;;;;;;6307180;22;20314;-61
2023/01/18 07:25:19;;;;;;;17.27;3.97;;;;;;;;;;6306980;22;20041;-62
2023/01/18 07:27:50;;;;;;;16.75;3.75;;;;;;;;;;6307451;22;20042;-61
2023/01/18 07:30:18;;;;;;;12.40;3.60;;;;;;;;;;6307254;22;20011;-61
2023/01/18 07:32:50;;;;;;;14.43;4.03;;;;;;;;;;6279953;22;20453;-61
2023/01/18 07:35:20;;;;;;;14.40;3.83;;;;;;;;;;6307053;22;20015;-61
2023/01/18 07:37:49;;;;;;;13.13;3.35;;;;;;;;;;6307283;22;20100;-61
2023/01/18 07:40:17;;;;;;;12.57;3.83;;;;;;;;;;6307136;22;20023;-61
2023/01/18 07:42:44;;;;;;;12.05;3.60;;;;;;;;;;6307066;22;20015;-61
2023/01/18 07:45:12;;;;;;;13.73;4.03;;;;;;;;;;6307022;22;20019;-61
2023/01/18 07:47:45;;;;;;;13.82;4.03;;;;;;;;;;6307188;22;20015;-61
2023/01/18 07:50:13;;;;;;;9.07;3.17;;;;;;;;;;6307096;22;20437;-61
2023/01/18 07:52:40;;;;;;;9.98;3.13;;;;;;;;;;6306877;22;20499;-61
2023/01/18 07:55:08;;;;;;;9.35;2.92;;;;;;;;;;6307123;22;20015;-61
2023/01/18 07:57:36;;;;;;;8.80;2.97;;;;;;;;;;6307079;22;20060;-61
2023/01/18 08:00:06;;;;;;;11.07;3.28;;;;;;;;;;6307034;22;20018;-61
2023/01/18 08:02:38;;;;;;;;;;;;;;;;;;6307405;22;20019;-61
2023/01/18 08:05:09;;;;;;;9.75;2.75;;;;;;;;;;6307053;22;19942;-61
2023/01/18 08:07:37;;;;;;;12.00;3.38;;;;;;;;;;6306643;22;20015;-63
2023/01/18 08:10:04;;;;;;;15.13;3.50;;;;;;;;;;6306997;22;20125;-63
2023/01/18 08:12:32;;;;;;;8.57;3.42;;;;;;;;;;6306832;22;20015;-62
2023/01/18 08:15:00;;;;;;;15.13;3.15;;;;;;;;;;6306830;22;20433;-61
2023/01/18 08:17:29;;;;;;;13.23;2.92;;;;;;;;;;6306585;22;20022;-63
2023/01/18 08:19:57;;;;;;;8.10;2.78;;;;;;;;;;6306775;22;20090;-63
2023/01/18 08:22:24;;;;;;;9.70;3.22;;;;;;;;;;6306955;22;20015;-63
2023/01/18 08:24:52;;;;;;;14.35;2.90;;;;;;;;;;6307309;22;20042;-63
2023/01/18 08:27:21;;;;;;;14.98;3.40;;;;;;;;;;6275871;22;20028;-63
2023/01/18 08:29:49;;;;;;;16.80;3.15;;;;;;;;;;6276062;22;20016;-63
2023/01/18 08:32:16;;;;;;;12.93;3.50;;;;;;;;;;6275918;22;20074;-63
2023/01/18 08:34:44;;;;;;;9.73;3.00;;;;;;;;;;6276003;22;20012;-62
2023/01/18 08:37:11;;;;;;;11.25;2.80;;;;;;;;;;6276107;22;20015;-63
2023/01/18 08:39:39;;;;;;;14.63;3.47;;;;;;;;;;6275956;22;20026;-63
2023/01/18 08:42:06;;;;;;;12.13;3.15;;;;;;;;;;6276064;22;20337;-63
2023/01/18 08:44:34;;;;;;;11.93;3.00;;;;;;;;;;6276197;22;20104;-63
2023/01/18 08:47:02;;;;;;;7.68;2.92;;;;;;;;;;6275795;22;20069;-63
2023/01/18 08:49:31;;;;;;;12.10;3.20;;;;;;;;;;6275707;22;20019;-62
2023/01/18 08:51:59;;;;;;;14.35;3.22;;;;;;;;;;6274600;22;20019;-63
2023/01/18 08:54:26;;;;;;;11.35;2.97;;;;;;;;;;6275572;22;20015;-63
2023/01/18 08:56:54;;;;;;;11.93;3.53;;;;;;;;;;6275639;22;20020;-63
2023/01/18 08:59:22;;;;;;;9.65;3.30;;;;;;;;;;6275878;22;20087;-63
2023/01/18 09:01:50;;;;;;;13.15;3.40;;;;;;;;;;6275731;22;20012;-61
2023/01/18 09:04:17;;;;;;;12.48;3.38;;;;;;;;;;6272758;22;20027;-63
2023/01/18 09:06:45;;;;;;;9.90;2.72;;;;;;;;;;6275448;22;20090;-62
2023/01/18 09:09:13;;;;;;;13.52;3.28;;;;;;;;;;6273970;22;20020;-62
2023/01/18 09:11:41;;;;;;;11.85;3.25;;;;;;;;;;6274377;22;20023;-62
2023/01/18 09:14:08;;;;;;;11.82;3.05;;;;;;;;;;6274188;22;20077;-60
2023/01/18 09:16:36;;;;;;;14.23;3.35;;;;;;;;;;6274126;22;20024;-62
2023/01/18 09:19:05;;;;;;;8.57;2.72;;;;;;;;;;6275086;22;20043;-62
2023/01/18 09:21:33;;;;;;;10.10;2.55;;;;;;;;;;6276235;22;20039;-62
2023/01/18 09:24:00;;;;;;;9.88;3.40;;;;;;;;;;6250815;22;20460;-61
2023/01/18 09:26:29;;;;;;;8.50;2.97;;;;;;;;;;6276910;22;20027;-62
2023/01/18 09:28:57;;;;;;;10.50;3.35;;;;;;;;;;6277090;22;20016;-62
2023/01/18 09:31:25;;;;;;;10.75;2.67;;;;;;;;;;6277311;22;20346;-63
2023/01/18 09:33:54;;;;;;;12.63;3.53;;;;;;;;;;6277443;22;20035;-62
2023/01/18 09:36:27;;;;;;;15.53;3.33;;;;;;;;;;6277402;22;20073;-61
2023/01/18 09:38:55;;;;;;;11.68;3.03;;;;;;;;;;6277247;22;20012;-61
2023/01/18 09:41:31;;;;;;;11.10;3.10;;;;;;;;;;6277312;22;20022;-61
2023/01/18 09:44:01;;;;;;;14.27;2.72;;;;;;;;;;6275967;22;20015;-61
2023/01/18 09:46:28;;;;;;;12.68;3.15;;;;;;;;;;6277400;22;20023;-68
2023/01/18 09:48:58;;;;;;;14.90;2.55;;;;;;;;;;6277133;22;20028;-70
2023/01/18 09:51:38;;;;;;;11.75;2.90;;;;;;;;;;6250743;22;20434;-69
2023/01/18 09:54:09;;;;;;;13.73;2.50;;;;;;;;;;6277401;22;20085;-70
2023/01/18 09:56:51;;;;;;;9.73;2.42;;;;;;;;;;6277285;22;20503;-70
2023/01/18 09:59:19;;;;;;;11.27;2.92;;;;;;;;;;6277173;22;20015;-70
2023/01/18 10:01:47;;;;;;;13.48;2.28;;;;;;;;;;6277034;22;20069;-70
2023/01/18 10:04:25;;;;;;;13.05;3.67;;;;;;;;;;6276604;22;20389;-71
2023/01/18 10:06:55;;;;;;;11.70;3.40;;;;;;;;;;6249845;22;20050;-71
2023/01/18 10:09:28;;;;;;;10.20;3.35;;;;;;;;;;6277004;22;20071;-70
2023/01/18 10:11:58;;;;;;;12.60;4.22;;;;;;;;;;6275327;22;20016;-71
2023/01/18 10:14:29;;;;;;;14.82;5.03;;;;;;;;;;6276745;22;20333;-72
2023/01/18 10:17:00;;;;;;;19.13;6.55;;;;;;;;;;6276848;22;20043;-72
2023/01/18 10:19:29;;;;;;;13.50;3.40;;;;;;;;;;6277109;22;20039;-63
2023/01/18 10:22:06;;;;;;;17.67;2.72;;;;;;;;;;6277047;22;20446;-62
2023/01/18 10:24:39;;;;;;;10.20;2.67;;;;;;;;;;6273094;22;20015;-62
2023/01/18 10:40:11;;;;;;;10.18;3.10;;;;;;;;;;5115565;22;20421;-61
2023/01/18 10:42:49;;;;;;;12.27;4.05;;;;;;;;;;5109227;28;20044;-61
2023/01/18 10:45:20;;;;;;;10.48;2.95;;;;;;;;;;5108767;28;20067;-62
2023/01/18 10:47:51;;;;;;;13.65;2.80;;;;;;;;;;5103771;28;20039;-62
2023/01/18 10:50:19;;;;;;;11.65;3.22;;;;;;;;;;5089320;28;20071;-62
2023/01/18 10:52:46;;;;;;;11.30;3.03;;;;;;;;;;5088632;28;20041;-62
2023/01/18 10:55:17;;;;;;;12.80;3.20;;;;;;;;;;5088677;28;20032;-62
2023/01/18 10:57:48;;;;;;;9.68;2.38;;;;;;;;;;5088986;28;20041;-61
2023/01/18 11:00:22;;;;;;;9.50;3.15;;;;;;;;;;5089264;28;20040;-61
2023/01/18 11:02:51;;;;;;;12.35;2.42;;;;;;;;;;5103010;28;20051;-62
2023/01/18 11:05:29;;;;;;;9.88;2.88;;;;;;;;;;5108118;28;20114;-62
2023/01/18 11:08:15;;;;;;;9.75;2.55;;;;;;;;;;5109608;28;20078;-62
2023/01/18 11:10:42;;;;;;;10.48;3.05;;;;;;;;;;5109466;28;20044;-62
2023/01/18 11:13:24;;;;;;;10.95;2.70;;;;;;;;;;5109603;28;20119;-62
2023/01/18 11:16:11;;;;;;;11.65;2.40;;;;;;;;;;5109563;28;20051;-61
2023/01/18 11:18:59;;;;;;;10.70;2.35;;;;;;;;;;5109618;28;20623;-67
2023/01/18 11:21:29;;;;;;;9.57;2.30;;;;;;;;;;5109297;28;20157;-67
2023/01/18 11:23:57;;;;;;;8.75;2.47;;;;;;;;;;5109102;28;20044;-67
2023/01/18 11:26:27;;;;;;;8.65;2.40;;;;;;;;;;5108950;28;20127;-68
2023/01/18 11:29:06;;;;;;;7.82;1.98;;;;;;;;;;5108970;28;20118;-66
2023/01/18 11:31:44;;;;;;;7.55;2.22;;;;;;;;;;5109257;28;20479;-67
2023/01/18 11:34:24;;;;;;;10.57;2.53;;;;;;;;;;5109307;28;20044;-67
2023/01/18 11:36:51;;;;;;;10.02;2.67;;;;;;;;;;5109075;28;20455;-66
2023/01/18 11:39:19;;;;;;;12.48;3.70;;;;;;;;;;5105584;28;20120;-67
2023/01/18 11:41:47;;;;;;;14.85;5.32;;;;;;;;;;5095497;28;20040;-66
2023/01/18 11:44:21;;;;;;;16.83;6.00;;;;;;;;;;5095339;28;20040;-66
2023/01/18 11:47:02;;;;;;;12.50;3.67;;;;;;;;;;5095186;28;20093;-68
2023/01/18 11:49:36;;;;;;;15.27;4.88;;;;;;;;;;5095054;28;20047;-67
2023/01/18 11:52:11;;;;;;;15.40;4.93;;;;;;;;;;5094949;28;20040;-67
2023/01/18 11:54:43;;;;;;;11.13;3.72;;;;;;;;;;5094812;28;20289;-69
2023/01/18 11:57:11;;;;;;;10.02;4.00;;;;;;;;;;5094961;28;20396;-68
2023/01/18 11:59:41;;;;;;;11.68;3.05;;;;;;;;;;5095077;28;20051;-68
2023/01/18 12:02:29;;;;;;;7.93;1.90;;;;;;;;;;5094850;28;20477;-69
2023/01/18 12:04:57;;;;;;;7.18;2.50;;;;;;;;;;5095111;28;20051;-67
2023/01/18 12:07:39;;;;;;;6.38;2.55;;;;;;;;;;5095179;28;20028;-68
2023/01/18 12:10:12;;;;;;;10.50;2.90;;;;;;;;;;5095181;28;20036;-67
2023/01/18 12:12:45;;;;;;;9.00;2.33;;;;;;;;;;5095077;28;20063;-67
2023/01/18 12:15:32;;;;;;;9.25;2.05;;;;;;;;;;5095026;28;20067;-69
2023/01/18 12:17:59;;;;;;;13.02;2.50;;;;;;;;;;5094805;28;20044;-68
2023/01/18 12:20:42;;;;;;;9.40;1.85;;;;;;;;;;5094949;28;20056;-68
2023/01/18 12:23:28;;;;;;;8.10;2.25;;;;;;;;;;5094929;28;20032;-68
2023/01/18 12:26:00;;;;;;;10.75;2.30;;;;;;;;;;5094784;28;20044;-68
2023/01/18 12:28:50;;;;;;;12.13;2.22;;;;;;;;;;5094808;28;20044;-68
2023/01/18 12:31:24;;;;;;;6.45;1.60;;;;;;;;;;5095082;28;20408;-68
2023/01/18 12:33:54;;;;;;;7.95;2.38;;;;;;;;;;5076722;28;20036;-68
2023/01/18 12:36:40;;;;;;;5.00;2.13;;;;;;;;;;5094662;28;20050;-68
2023/01/18 12:39:24;;;;;;;11.07;2.80;;;;;;;;;;5094428;28;20173;-70
2023/01/18 12:41:51;;;;;;;6.90;2.28;;;;;;;;;;5094663;28;20040;-70
2023/01/18 12:44:37;;;;;;;7.72;1.88;;;;;;;;;;5094707;28;20048;-69
2023/01/18 12:47:05;;;;;;;9.75;2.40;;;;;;;;;;5094435;28;20044;-68
2023/01/18 12:49:36;;;;;;;7.85;1.90;;;;;;;;;;5094374;28;20032;-68
2023/01/18 12:52:04;;;;;;;10.52;2.45;;;;;;;;;;5093462;28;20070;-68
2023/01/18 12:54:49;;;;;;;7.13;2.55;;;;;;;;;;5094185;28;20036;-68
2023/01/18 12:57:18;;;;;;;7.40;2.00;;;;;;;;;;5094140;28;20076;-68
2023/01/18 13:00:08;;;;;;;6.25;2.20;;;;;;;;;;5094127;28;20549;-69
2023/01/18 13:02:40;;;;;;;7.40;1.80;;;;;;;;;;5094122;28;20044;-68
2023/01/18 13:05:20;;;;;;;9.50;2.10;;;;;;;;;;5094150;28;20047;-68
2023/01/18 13:07:59;;;;;;;7.40;2.20;;;;;;;;;;5093966;28;20039;-68
2023/01/18 13:10:27;;;;;;;6.57;2.15;;;;;;;;;;5094025;28;20036;-68
2023/01/18 13:12:56;;;;;;;9.35;2.50;;;;;;;;;;5094261;28;20101;-68
2023/01/18 13:15:30;;;;;;;5.95;2.15;;;;;;;;;;5093828;28;20408;-67
2023/01/18 13:18:05;;;;;;;6.53;2.00;;;;;;;;;;5093886;28;20048;-67
2023/01/18 13:20:32;;;;;;;;;;;;;;;;;;5092952;28;20488;-67
2023/01/18 13:23:18;;;;;;;8.35;2.40;;;;;;;;;;5093068;28;19963;-69
2023/01/18 13:25:47;;;;;;;6.05;2.15;;;;;;;;;;5089066;28;20054;-67
2023/01/18 13:28:18;;;;;;;12.45;3.63;;;;;;;;;;5091079;28;20123;-68
2023/01/18 13:30:51;;;;;;;10.93;4.10;;;;;;;;;;5092699;28;20090;-68
2023/01/18 13:33:23;;;;;;;9.35;3.03;;;;;;;;;;5091852;28;20381;-68
2023/01/18 13:36:12;;;;;;;9.52;2.85;;;;;;;;;;5088232;28;20047;-69
2023/01/18 13:38:50;;;;;;;10.27;3.28;;;;;;;;;;5093066;28;20056;-68
2023/01/18 13:41:23;;;;;;;13.07;2.95;;;;;;;;;;5093198;28;20420;-67
2023/01/18 13:43:52;;;;;;;6.95;3.25;;;;;;;;;;5092162;28;20048;-67
2023/01/18 13:46:22;;;;;;;9.30;3.50;;;;;;;;;;5091577;28;20069;-67
2023/01/18 13:48:49;;;;;;;13.32;3.42;;;;;;;;;;5091375;28;20044;-68
2023/01/18 13:51:35;;;;;;;10.05;3.33;;;;;;;;;;5092766;28;20044;-68
2023/01/18 13:54:03;;;;;;;9.95;4.57;;;;;;;;;;5092744;28;20055;-68
2023/01/18 13:56:32;;;;;;;17.90;7.45;;;;;;;;;;5093097;28;20436;-67
2023/01/18 13:59:02;;;;;;;18.55;7.93;;;;;;;;;;5093078;28;20477;-69
2023/01/18 14:01:32;;;;;;;17.90;6.82;;;;;;;;;;5093400;28;20040;-70
2023/01/18 14:04:21;;;;;;;17.27;7.65;;;;;;;;;;5092785;28;20040;-68
2023/01/18 14:06:49;;;;;;;18.73;8.93;;;;;;;;;;5092969;28;20040;-68
2023/01/18 14:09:18;;;;;;;22.52;8.07;;;;;;;;;;5092905;28;20374;-67
2023/01/18 14:11:53;;;;;;;13.68;7.07;;;;;;;;;;5092898;28;20032;-67
2023/01/18 14:14:23;;;;;;;17.13;8.30;;;;;;;;;;5092787;28;20032;-65
2023/01/18 14:16:56;;;;;;;21.85;9.15;;;;;;;;;;5092841;28;20064;-66
2023/01/18 14:19:26;;;;;;;17.08;8.80;;;;;;;;;;5091666;28;20040;-68
2023/01/18 14:21:59;;;;;;;20.20;9.52;;;;;;;;;;5092899;28;20539;-68
2023/01/18 14:24:36;;;;;;;12.05;6.07;;;;;;;;;;5092790;28;20074;-66
2023/01/18 14:27:05;;;;;;;6.53;3.40;;;;;;;;;;5092228;28;20035;-67
2023/01/18 14:29:33;;;;;;;8.07;3.20;;;;;;;;;;5092303;28;20062;-65
2023/01/18 14:32:01;;;;;;;12.32;3.58;;;;;;;;;;5092532;28;20048;-65
2023/01/18 14:34:31;;;;;;;9.57;4.82;;;;;;;;;;5092840;28;20040;-69
2023/01/18 14:36:59;;;;;;;9.75;4.90;;;;;;;;;;5092692;28;20039;-68
2023/01/18 14:39:28;;;;;;;12.57;4.82;;;;;;;;;;5092459;28;20059;-68
2023/01/18 14:41:57;;;;;;;8.85;4.60;;;;;;;;;;5091558;28;20444;-67
2023/01/18 14:44:27;;;;;;;11.23;4.65;;;;;;;;;;5092564;28;20044;-68
2023/01/18 14:46:56;;;;;;;10.98;4.25;;;;;;;;;;5092588;28;20036;-68
2023/01/18 14:49:25;;;;;;;9.88;4.00;;;;;;;;;;5092874;28;20051;-68
2023/01/18 14:51:53;;;;;;;13.35;4.45;;;;;;;;;;5092409;28;20074;-68
2023/01/18 14:54:23;;;;;;;13.38;5.40;;;;;;;;;;5092442;28;20530;-69
2023/01/18 14:56:51;;;;;;;15.07;6.30;;;;;;;;;;5092291;28;20044;-68
2023/01/18 14:59:21;;;;;;;16.35;6.85;;;;;;;;;;5092213;28;20044;-68
2023/01/18 15:01:52;;;;;;;34.17;20.30;;;;;;;;;;5092380;28;20496;-68
2023/01/18 15:04:19;;;;;;;25.75;13.48;;;;;;;;;;5092096;28;20051;-68
2023/01/18 15:06:54;;;;;;;37.45;23.08;;;;;;;;;;5092140;28;20070;-67
2023/01/18 15:09:22;;;;;;;37.85;19.73;;;;;;;;;;5092042;28;20063;-68
2023/01/18 15:11:55;;;;;;;38.38;21.10;;;;;;;;;;5092288;28;20115;-68
2023/01/18 15:14:25;;;;;;;39.40;23.90;;;;;;;;;;5092855;28;20382;-67
2023/01/18 15:16:54;;;;;;;58.17;35.00;;;;;;;;;;5096012;28;20040;-68
2023/01/18 15:19:41;;;;;;;55.55;28.50;;;;;;;;;;5095987;28;20139;-68
2023/01/18 15:22:11;;;;;;;47.03;25.20;;;;;;;;;;5094755;28;20462;-67
2023/01/18 15:24:40;;;;;;;50.45;21.70;;;;;;;;;;5096173;28;20044;-68
2023/01/18 15:27:18;;;;;;;45.00;22.45;;;;;;;;;;5096144;28;20036;-68
2023/01/18 15:29:47;;;;;;;34.70;16.80;;;;;;;;;;5095815;28;20040;-68
2023/01/18 15:32:16;;;;;;;31.52;14.93;;;;;;;;;;5096074;28;20177;-68
2023/01/18 15:34:45;;;;;;;33.63;14.38;;;;;;;;;;5095738;28;20047;-68
2023/01/18 15:37:15;;;;;;;18.55;7.20;;;;;;;;;;5095811;28;20082;-68
2023/01/18 15:39:57;;;;;;;12.98;6.40;;;;;;;;;;5095385;28;20062;-68
2023/01/18 15:42:27;;;;;;;12.48;5.97;;;;;;;;;;5095745;28;20043;-68